Time;durP1;ratioP1;P1;durP2;ratioP2;P2;SDS_P1;SDS_P2;PMS_P1;PMS_P2;Temp;Humidity;BMP_temperature;BMP_pressure;BME280_temperature;BME280_humidity;BME280_pressure;Samples;Min_cycle;Max_cycle;Signal;HPM_P1;HPM_P2
2022/04/14 00:01:04;;;;;;;15.87;9.37;;;;;;;12.82;93.02;101995.19;5010198;28;20215;-73
2022/04/14 00:03:29;;;;;;;13.87;9.60;;;;;;;12.85;92.55;101986.69;4978991;28;20203;-72
2022/04/14 00:05:54;;;;;;;14.53;8.83;;;;;;;12.84;92.53;101984.94;4973213;28;20271;-73
2022/04/14 00:08:20;;;;;;;15.10;9.80;;;;;;;12.85;92.42;101986.69;4990727;28;20200;-73
2022/04/14 00:10:45;;;;;;;19.70;9.80;;;;;;;12.85;92.75;101972.16;4990403;28;20207;-73
2022/04/14 00:13:10;;;;;;;16.60;10.67;;;;;;;12.81;93.12;101970.31;4991216;28;20251;-73
2022/04/14 00:15:36;;;;;;;16.47;10.07;;;;;;;12.79;93.34;101963.38;4990924;28;20346;-73
2022/04/14 00:18:01;;;;;;;15.90;10.53;;;;;;;12.76;93.54;101964.16;4988829;28;20192;-73
2022/04/14 00:20:27;;;;;;;19.60;12.13;;;;;;;12.79;93.77;101950.53;5004004;28;20284;-72
2022/04/14 00:22:52;;;;;;;19.07;10.40;;;;;;;12.79;93.41;101965.94;5009820;28;20183;-72
2022/04/14 00:25:18;;;;;;;22.00;11.27;;;;;;;12.82;92.99;101961.75;5009993;28;20624;-72
2022/04/14 00:27:43;;;;;;;17.53;11.33;;;;;;;12.76;93.19;101963.31;5009702;28;20845;-72
2022/04/14 00:30:10;;;;;;;17.27;10.63;;;;;;;12.76;93.39;101951.31;5010116;28;20697;-72
2022/04/14 00:32:35;;;;;;;17.63;11.17;;;;;;;12.73;93.55;101945.22;5009935;28;20195;-73
2022/04/14 00:35:01;;;;;;;16.47;11.33;;;;;;;12.72;93.60;101934.06;5009467;28;20202;-73
2022/04/14 00:37:26;;;;;;;15.30;11.07;;;;;;;12.73;93.57;101935.81;5008832;28;20742;-73
2022/04/14 00:39:51;;;;;;;17.07;10.97;;;;;;;12.68;94.02;101932.22;5009555;28;20214;-72
2022/04/14 00:42:17;;;;;;;18.33;10.43;;;;;;;12.74;93.51;101931.53;5010516;28;20640;-74
2022/04/14 00:44:42;;;;;;;16.90;11.03;;;;;;;12.75;93.44;101938.41;4992213;28;20616;-72
2022/04/14 00:47:10;;;;;;;16.13;11.13;;;;;;;12.66;93.93;101951.00;5010212;28;20191;-73
2022/04/14 00:49:35;;;;;;;18.77;11.63;;;;;;;12.51;94.93;101958.28;5009871;28;20611;-72
2022/04/14 00:52:01;;;;;;;17.33;12.67;;;;;;;12.48;95.41;101960.75;5009890;28;20197;-72
2022/04/14 00:54:31;;;;;;;19.53;11.40;;;;;;;12.43;95.75;101970.91;5009372;28;20284;-72
2022/04/14 00:57:00;;;;;;;19.13;12.67;;;;;;;12.42;95.78;101982.00;5006546;28;20199;-72
2022/04/14 00:59:26;;;;;;;20.57;13.83;;;;;;;12.38;96.49;101994.69;5005793;28;20250;-72
2022/04/14 01:01:53;;;;;;;19.03;11.77;;;;;;;12.27;96.98;101991.81;5008103;28;20222;-72
2022/04/14 01:04:19;;;;;;;20.47;13.93;;;;;;;12.19;97.65;101992.41;5009360;28;20207;-73
2022/04/14 01:06:45;;;;;;;22.50;14.37;;;;;;;12.19;97.56;101997.53;5003512;28;20187;-72
2022/04/14 01:09:16;;;;;;;25.83;14.30;;;;;;;12.17;97.92;101996.63;5001967;28;20329;-72
2022/04/14 01:11:49;;;;;;;22.27;12.70;;;;;;;12.18;97.66;101998.34;5007386;28;20289;-72
2022/04/14 01:14:39;;;;;;;24.00;14.07;;;;;;;12.20;97.51;101989.00;5007762;28;20225;-72
2022/04/14 01:17:07;;;;;;;23.27;12.77;;;;;;;12.26;97.17;101966.09;4999092;28;20214;-72
2022/04/14 01:19:34;;;;;;;25.60;13.43;;;;;;;12.23;96.75;101966.00;5004466;28;20200;-72
2022/04/14 01:22:06;;;;;;;21.27;13.10;;;;;;;12.20;96.52;101968.44;5004230;28;20534;-73
2022/04/14 01:24:31;;;;;;;20.57;12.07;;;;;;;12.21;96.82;101962.53;5002189;28;20229;-73
2022/04/14 01:26:58;;;;;;;23.43;12.90;;;;;;;12.21;96.50;101957.38;4992308;28;20194;-71
2022/04/14 01:29:25;;;;;;;20.03;11.83;;;;;;;12.25;96.22;101957.50;5001663;28;20226;-73
2022/04/14 01:31:52;;;;;;;19.90;11.90;;;;;;;12.24;96.27;101960.03;5010466;28;20202;-72
2022/04/14 01:34:17;;;;;;;20.90;12.60;;;;;;;12.26;95.65;101958.38;4991561;28;20226;-72
2022/04/14 01:36:43;;;;;;;18.83;12.53;;;;;;;12.27;95.56;101945.59;5011570;28;20191;-74
2022/04/14 01:39:10;;;;;;;15.83;11.30;;;;;;;12.31;95.31;101949.13;4991126;28;20232;-72
2022/04/14 01:41:37;;;;;;;19.40;11.87;;;;;;;12.27;95.23;101953.31;4989483;28;20194;-72
2022/04/14 01:44:02;;;;;;;20.50;12.03;;;;;;;12.29;95.15;101959.34;4996813;28;20261;-72
2022/04/14 01:46:27;;;;;;;23.03;12.13;;;;;;;12.24;95.56;101962.59;4987287;28;20191;-72
2022/04/14 01:48:53;;;;;;;21.17;12.47;;;;;;;12.26;95.63;101960.97;5002835;28;20183;-72
2022/04/14 01:51:19;;;;;;;20.00;12.07;;;;;;;12.24;95.70;101963.47;5009127;28;20203;-73
2022/04/14 01:53:45;;;;;;;20.30;12.57;;;;;;;12.26;95.61;101966.09;4991611;28;20774;-72
2022/04/14 01:56:10;;;;;;;20.53;12.33;;;;;;;12.23;95.94;101961.75;5008289;28;20230;-72
2022/04/14 01:58:36;;;;;;;20.00;12.13;;;;;;;12.22;95.51;101966.81;5006047;28;20187;-73
2022/04/14 02:01:01;;;;;;;20.50;12.33;;;;;;;12.23;95.29;101961.75;5009012;28;20972;-73
2022/04/14 02:03:26;;;;;;;18.70;12.73;;;;;;;12.23;95.71;101960.84;4984223;28;20191;-72
2022/04/14 02:05:52;;;;;;;21.03;12.83;;;;;;;12.20;95.74;101956.50;4992494;28;20252;-72
2022/04/14 02:08:17;;;;;;;22.33;13.43;;;;;;;12.22;95.84;101967.66;5004419;28;20282;-73
2022/04/14 02:10:42;;;;;;;19.57;13.57;;;;;;;12.20;96.13;101960.75;4990631;28;20196;-72
2022/04/14 02:13:08;;;;;;;21.67;13.83;;;;;;;12.18;96.13;101967.53;5010528;28;20206;-73
2022/04/14 02:15:33;;;;;;;23.57;14.70;;;;;;;12.16;96.43;101961.50;5000621;28;20225;-72
2022/04/14 02:17:58;;;;;;;24.07;14.13;;;;;;;12.15;96.47;101962.31;4992352;28;20215;-72
2022/04/14 02:20:23;;;;;;;24.40;15.27;;;;;;;12.12;96.51;101959.66;5004786;28;20302;-72
2022/04/14 02:22:49;;;;;;;26.90;14.77;;;;;;;12.11;96.92;101965.59;5006430;28;20271;-72
2022/04/14 02:25:14;;;;;;;23.63;15.40;;;;;;;12.10;97.03;101962.19;5000333;28;20270;-72
2022/04/14 02:27:39;;;;;;;23.50;15.90;;;;;;;12.09;96.98;101945.03;5008915;28;20563;-73
2022/04/14 02:30:05;;;;;;;29.30;16.40;;;;;;;12.08;96.96;101938.13;5011536;28;20660;-72
2022/04/14 02:32:31;;;;;;;29.80;16.33;;;;;;;12.08;97.02;101950.97;4994742;28;20191;-71
2022/04/14 02:34:56;;;;;;;25.30;15.97;;;;;;;11.99;97.37;101954.97;5016392;28;20207;-72
2022/04/14 02:37:21;;;;;;;24.13;15.87;;;;;;;12.02;97.23;101963.63;5004780;28;20677;-73
2022/04/14 02:39:47;;;;;;;26.97;16.70;;;;;;;11.97;97.81;101970.31;5016016;28;20692;-72
2022/04/14 02:42:12;;;;;;;28.50;17.37;;;;;;;11.96;98.17;101965.13;5007940;28;20606;-72
2022/04/14 02:44:37;;;;;;;29.80;17.57;;;;;;;11.93;98.24;101945.38;5012491;28;20630;-72
2022/04/14 02:47:03;;;;;;;27.20;16.93;;;;;;;11.98;97.93;101935.25;5003471;28;20636;-73
2022/04/14 02:49:28;;;;;;;27.17;17.23;;;;;;;11.98;97.94;101945.53;5007534;28;20703;-73
2022/04/14 02:51:53;;;;;;;28.57;17.73;;;;;;;11.94;98.02;101941.13;5004847;28;20831;-72
2022/04/14 02:54:19;;;;;;;26.93;16.83;;;;;;;11.97;97.81;101931.81;4993849;28;20697;-73
2022/04/14 02:56:44;;;;;;;28.00;17.13;;;;;;;11.98;97.49;101925.00;4994356;28;20191;-72
2022/04/14 02:59:09;;;;;;;29.73;17.37;;;;;;;11.98;97.67;101922.44;5009640;28;20225;-72
2022/04/14 03:01:35;;;;;;;24.57;16.77;;;;;;;11.97;97.40;101930.94;5012950;28;20183;-72
2022/04/14 03:04:00;;;;;;;25.43;16.43;;;;;;;11.95;97.24;101923.19;5013692;28;20214;-72
2022/04/14 03:06:25;;;;;;;25.40;16.53;;;;;;;11.94;97.17;101933.41;4993098;28;20241;-73
2022/04/14 03:08:51;;;;;;;24.63;16.50;;;;;;;11.97;97.35;101938.63;5008437;28;20183;-74
2022/04/14 03:11:16;;;;;;;23.87;17.17;;;;;;;11.95;96.97;101941.16;5002773;28;20199;-72
2022/04/14 03:13:44;;;;;;;23.90;15.77;;;;;;;11.92;97.43;101945.31;4990769;28;20633;-72
2022/04/14 03:16:10;;;;;;;25.80;16.77;;;;;;;11.87;97.72;101942.63;5000907;28;20230;-71
2022/04/14 03:18:35;;;;;;;31.90;17.27;;;;;;;11.87;98.07;101934.91;5003317;28;20224;-72
2022/04/14 03:21:01;;;;;;;26.03;16.17;;;;;;;11.85;98.20;101935.69;5013018;28;20198;-73
2022/04/14 03:23:27;;;;;;;28.77;17.67;;;;;;;11.82;98.20;101928.78;5008095;28;20203;-72
2022/04/14 03:25:52;;;;;;;28.27;17.20;;;;;;;11.84;98.19;101927.13;5014894;28;20262;-72
2022/04/14 03:28:17;;;;;;;25.50;16.50;;;;;;;11.88;97.71;101930.63;5004736;28;20206;-72
2022/04/14 03:30:42;;;;;;;25.17;16.53;;;;;;;11.87;97.53;101924.66;5005911;28;20559;-72
2022/04/14 03:33:08;;;;;;;26.17;17.27;;;;;;;11.84;97.46;101926.25;5013290;28;20326;-72
2022/04/14 03:35:34;;;;;;;23.43;16.37;;;;;;;11.82;97.53;101927.88;5012813;28;20218;-73
2022/04/14 03:37:59;;;;;;;27.47;16.43;;;;;;;11.79;97.45;101944.06;5006637;28;20194;-74
2022/04/14 03:40:24;;;;;;;29.90;17.23;;;;;;;11.75;98.29;101941.38;5014861;28;20672;-72
2022/04/14 03:42:50;;;;;;;26.63;16.73;;;;;;;11.71;97.98;101942.94;4993106;28;20194;-71
2022/04/14 03:45:15;;;;;;;31.53;17.27;;;;;;;11.66;98.25;101949.63;5007266;28;20211;-71
2022/04/14 03:47:40;;;;;;;28.10;16.47;;;;;;;11.67;98.23;101945.38;5008805;28;20245;-72
2022/04/14 03:50:06;;;;;;;27.40;16.23;;;;;;;11.68;98.31;101945.41;5012251;28;20205;-72
2022/04/14 03:52:32;;;;;;;27.60;16.43;;;;;;;11.69;98.25;101930.88;5007666;28;20238;-72
2022/04/14 03:54:57;;;;;;;26.67;15.13;;;;;;;11.66;98.04;101926.53;5011679;28;20207;-71
2022/04/14 03:57:24;;;;;;;27.03;15.97;;;;;;;11.63;97.94;101929.00;4992126;28;20191;-73
2022/04/14 03:59:49;;;;;;;23.57;14.90;;;;;;;11.65;98.01;101934.16;5007363;28;20219;-72
2022/04/14 04:02:15;;;;;;;26.37;15.27;;;;;;;11.63;97.61;101933.25;4997208;28;20561;-72
2022/04/14 04:04:41;;;;;;;22.90;15.37;;;;;;;11.64;98.01;101932.44;5007334;28;20210;-72
2022/04/14 04:07:07;;;;;;;26.37;15.77;;;;;;;11.60;97.70;101934.03;5010147;28;20192;-72
2022/04/14 04:09:33;;;;;;;26.27;16.10;;;;;;;11.56;97.74;101932.16;5008487;28;20188;-73
2022/04/14 04:11:59;;;;;;;27.43;15.03;;;;;;;11.56;98.10;101941.56;5018134;28;20179;-72
2022/04/14 04:14:24;;;;;;;23.27;13.97;;;;;;;11.57;97.66;101935.59;5007174;28;20221;-72
2022/04/14 04:16:49;;;;;;;22.90;15.23;;;;;;;11.54;97.72;101936.38;5007143;28;20199;-73
2022/04/14 04:19:15;;;;;;;24.20;14.97;;;;;;;11.53;97.70;101938.88;5003913;28;20234;-73
2022/04/14 04:21:40;;;;;;;22.60;14.67;;;;;;;11.51;97.73;101943.94;5010262;28;20198;-72
2022/04/14 04:24:05;;;;;;;27.07;15.63;;;;;;;11.52;97.61;101947.41;5010396;28;20227;-72
2022/04/14 04:26:31;;;;;;;25.40;15.53;;;;;;;11.54;97.43;101944.06;5010550;28;20183;-72
2022/04/14 04:28:56;;;;;;;22.87;15.57;;;;;;;11.57;97.38;101938.16;5010006;28;20659;-72
2022/04/14 04:31:21;;;;;;;21.83;14.47;;;;;;;11.53;96.99;101933.75;5010490;28;20187;-72
2022/04/14 04:33:51;;;;;;;19.97;14.03;;;;;;;11.55;96.62;101924.41;5008948;28;20198;-72
2022/04/14 04:36:19;;;;;;;21.80;13.73;;;;;;;11.57;96.26;101922.78;4990842;28;20669;-72
2022/04/14 04:38:44;;;;;;;20.63;13.77;;;;;;;11.58;95.85;101921.94;4989839;28;20203;-72
2022/04/14 04:41:10;;;;;;;24.97;15.40;;;;;;;11.51;96.45;101923.44;4990866;28;20188;-71
2022/04/14 04:43:36;;;;;;;26.50;15.40;;;;;;;11.49;96.72;101927.66;4989470;28;20187;-72
2022/04/14 04:46:01;;;;;;;25.90;16.03;;;;;;;11.49;96.60;101930.22;4990383;28;20192;-71
2022/04/14 04:48:26;;;;;;;24.53;15.33;;;;;;;11.50;97.72;101938.78;4990479;28;20190;-73
2022/04/14 04:50:52;;;;;;;23.20;15.43;;;;;;;11.49;97.91;101937.91;4990802;28;20199;-72
2022/04/14 04:53:18;;;;;;;23.80;14.53;;;;;;;11.53;97.75;101944.88;5008562;28;20230;-72
2022/04/14 04:55:43;;;;;;;26.20;15.57;;;;;;;11.53;97.68;101942.28;5005083;28;20211;-72
2022/04/14 04:58:08;;;;;;;21.53;15.07;;;;;;;11.55;97.15;101939.78;5003920;28;20329;-71
2022/04/14 05:00:34;;;;;;;23.37;14.70;;;;;;;11.53;97.12;101937.16;4989607;28;20246;-72
2022/04/14 05:02:59;;;;;;;23.10;15.13;;;;;;;11.58;96.92;101945.03;4990286;28;20199;-73
2022/04/14 05:05:25;;;;;;;21.83;14.60;;;;;;;11.60;96.84;101939.16;4990360;28;20219;-72
2022/04/14 05:07:50;;;;;;;25.80;14.77;;;;;;;11.61;96.36;101942.63;4988924;28;20278;-72
2022/04/14 05:10:16;;;;;;;23.93;14.50;;;;;;;11.61;96.61;101947.75;4990058;28;20196;-73
2022/04/14 05:12:42;;;;;;;23.50;16.07;;;;;;;11.62;96.50;101937.50;4979959;28;20184;-72
2022/04/14 05:15:07;;;;;;;22.43;14.67;;;;;;;11.67;96.51;101937.66;4969729;28;20748;-72
2022/04/14 05:17:33;;;;;;;21.60;14.37;;;;;;;11.72;95.76;101943.81;4970372;28;20725;-72
2022/04/14 05:19:58;;;;;;;24.57;16.20;;;;;;;11.72;96.19;101947.28;4969867;28;20243;-72
2022/04/14 05:22:23;;;;;;;25.00;16.03;;;;;;;11.75;95.98;101946.50;4969684;28;20200;-72
2022/04/14 05:24:49;;;;;;;24.20;15.73;;;;;;;11.77;96.01;101950.84;4970643;28;20207;-72
2022/04/14 05:27:14;;;;;;;24.03;15.40;;;;;;;11.78;95.84;101947.47;4972639;28;20669;-72
2022/04/14 05:29:39;;;;;;;23.97;15.77;;;;;;;11.78;96.08;101949.13;4989989;28;20649;-71
2022/04/14 05:32:05;;;;;;;23.30;15.00;;;;;;;11.76;96.03;101956.78;4990111;28;20238;-72
2022/04/14 05:34:32;;;;;;;22.17;14.80;;;;;;;11.78;96.17;101960.28;4988231;28;20302;-72
2022/04/14 05:36:58;;;;;;;22.50;14.90;;;;;;;11.85;96.41;101961.34;4989978;28;20187;-72
2022/04/14 05:39:23;;;;;;;27.03;17.40;;;;;;;11.88;95.92;101964.00;4989715;28;20582;-72
2022/04/14 05:41:48;;;;;;;24.73;16.27;;;;;;;11.88;96.22;101962.31;4971575;28;20187;-73
2022/04/14 05:44:14;;;;;;;21.97;15.47;;;;;;;11.93;96.13;101954.78;4990679;28;20231;-72
2022/04/14 05:46:39;;;;;;;23.80;15.53;;;;;;;11.95;96.51;101959.13;4993540;28;20184;-72
2022/04/14 05:49:04;;;;;;;26.90;17.33;;;;;;;11.93;96.59;101960.78;4992440;28;20941;-72
2022/04/14 05:51:30;;;;;;;26.23;16.73;;;;;;;11.91;97.10;101958.97;4993520;28;20222;-72
2022/04/14 05:53:55;;;;;;;26.93;17.13;;;;;;;11.93;97.40;101963.34;4976688;28;20218;-72
2022/04/14 05:56:20;;;;;;;32.20;17.47;;;;;;;11.93;97.25;101967.63;4992701;28;20196;-73
2022/04/14 05:58:46;;;;;;;32.23;18.93;;;;;;;11.90;97.72;101964.94;4992383;28;20187;-73
2022/04/14 06:01:12;;;;;;;29.87;19.77;;;;;;;11.92;97.89;101960.72;4994053;28;20253;-72
2022/04/14 06:03:38;;;;;;;32.07;18.93;;;;;;;11.94;98.13;101961.66;4987058;28;20191;-74
2022/04/14 06:06:05;;;;;;;32.70;19.83;;;;;;;11.97;98.08;101957.47;4983920;28;20303;-73
2022/04/14 06:08:30;;;;;;;31.73;20.50;;;;;;;12.00;98.13;101955.03;4981179;28;20234;-72
2022/04/14 06:10:56;;;;;;;37.47;24.13;;;;;;;12.04;98.32;101959.44;5004971;28;20270;-73
2022/04/14 06:13:21;;;;;;;39.57;24.40;;;;;;;12.05;98.77;101960.28;5011082;28;20892;-72
2022/04/14 06:15:46;;;;;;;37.77;23.30;;;;;;;12.09;98.88;101959.56;5009850;28;20206;-72
2022/04/14 06:18:11;;;;;;;39.80;23.97;;;;;;;12.12;98.38;101959.66;5007502;28;20195;-71
2022/04/14 06:20:37;;;;;;;35.83;23.17;;;;;;;12.18;98.45;101958.16;5015265;28;20212;-72
2022/04/14 06:23:02;;;;;;;38.50;24.53;;;;;;;12.19;98.45;101959.91;5021309;28;20183;-72
2022/04/14 06:25:28;;;;;;;38.13;24.50;;;;;;;12.21;98.25;101965.94;5012421;28;20249;-71
2022/04/14 06:27:57;;;;;;;41.43;25.40;;;;;;;12.18;98.40;101963.28;4994882;28;20190;-71
2022/04/14 06:30:22;;;;;;;38.33;24.13;;;;;;;12.28;98.49;101974.69;5012313;28;20191;-71
2022/04/14 06:33:02;;;;;;;34.53;22.37;;;;;;;12.31;97.84;101967.94;5013141;28;20182;-72
2022/04/14 06:35:28;;;;;;;38.03;23.63;;;;;;;12.40;97.40;101965.66;4999950;28;20585;-72
2022/04/14 06:37:53;;;;;;;38.77;24.97;;;;;;;12.45;97.47;101968.38;4983519;28;20186;-73
2022/04/14 06:40:20;;;;;;;32.47;22.23;;;;;;;12.57;97.00;101963.59;5013740;28;20222;-74
2022/04/14 06:42:45;;;;;;;35.53;23.60;;;;;;;12.60;96.96;101959.44;4995454;28;20202;-73
2022/04/14 06:45:11;;;;;;;34.57;22.67;;;;;;;12.72;96.12;101964.91;5013498;28;20207;-74
2022/04/14 06:47:36;;;;;;;36.57;23.67;;;;;;;12.72;96.29;101959.75;5011964;28;20191;-72
2022/04/14 06:50:01;;;;;;;34.90;22.87;;;;;;;12.63;96.46;101954.38;5012510;28;20184;-72
2022/04/14 06:52:27;;;;;;;38.43;25.17;;;;;;;12.62;96.57;101962.91;4994368;28;20191;-72
2022/04/14 06:54:52;;;;;;;36.43;24.73;;;;;;;12.72;96.36;101964.06;5012101;28;20210;-72
2022/04/14 06:57:19;;;;;;;35.03;24.87;;;;;;;12.71;96.29;101965.75;5012348;28;20270;-73
2022/04/14 06:59:44;;;;;;;34.13;25.10;;;;;;;12.67;96.45;101969.03;4994075;28;20233;-71
2022/04/14 07:02:09;;;;;;;35.47;24.50;;;;;;;12.75;97.20;101967.56;4994760;28;20676;-72
2022/04/14 07:04:35;;;;;;;38.10;26.20;;;;;;;12.84;96.28;101970.41;4996968;28;21318;-72
2022/04/14 07:07:00;;;;;;;33.33;24.43;;;;;;;12.91;96.30;101961.16;4989709;28;20179;-72
2022/04/14 07:09:31;;;;;;;39.40;25.10;;;;;;;12.89;96.15;101965.38;5008098;28;20674;-72
2022/04/14 07:11:59;;;;;;;38.60;25.13;;;;;;;12.83;95.73;101972.94;5005140;28;20604;-72
2022/04/14 07:14:26;;;;;;;36.20;25.20;;;;;;;12.93;95.38;101966.38;4980539;28;20295;-73
2022/04/14 07:16:51;;;;;;;35.87;25.20;;;;;;;12.99;95.34;101964.88;4991477;28;20207;-73
2022/04/14 07:19:16;;;;;;;32.53;24.27;;;;;;;13.24;94.66;101964.69;4991879;28;20208;-73
2022/04/14 07:21:42;;;;;;;32.43;24.07;;;;;;;13.32;94.18;101970.91;4994977;28;20203;-73
2022/04/14 07:24:07;;;;;;;29.53;22.53;;;;;;;13.38;93.77;101970.19;5011342;28;20223;-73
2022/04/14 07:26:32;;;;;;;31.07;23.27;;;;;;;13.42;92.87;101970.31;5010939;28;20202;-73
2022/04/14 07:28:58;;;;;;;28.67;22.00;;;;;;;13.38;92.82;101967.59;5017908;28;20174;-74
2022/04/14 07:31:23;;;;;;;29.03;23.23;;;;;;;13.35;93.19;101965.81;5031302;28;20701;-72
2022/04/14 07:33:48;;;;;;;32.83;24.57;;;;;;;13.35;92.70;101972.69;5030724;28;20252;-72
2022/04/14 07:36:18;;;;;;;29.77;23.20;;;;;;;13.28;93.04;101971.66;5031123;28;20178;-72
2022/04/14 07:38:44;;;;;;;30.37;22.87;;;;;;;13.28;92.99;101969.09;5027227;28;20270;-72
2022/04/14 07:41:09;;;;;;;33.40;23.67;;;;;;;13.29;92.28;101975.09;5011332;28;20278;-72
2022/04/14 07:43:34;;;;;;;32.40;24.83;;;;;;;13.21;92.39;101976.59;4993305;28;20222;-71
2022/04/14 07:46:01;;;;;;;30.90;24.97;;;;;;;13.19;92.46;101986.84;5017978;28;20568;-71
2022/04/14 07:48:26;;;;;;;33.87;25.27;;;;;;;13.18;92.72;101984.22;5013178;28;20213;-72
2022/04/14 07:50:51;;;;;;;32.97;25.00;;;;;;;13.19;93.37;101978.25;5030703;28;20187;-73
2022/04/14 07:53:17;;;;;;;34.83;24.93;;;;;;;13.28;93.02;101981.06;5015609;28;20632;-73
2022/04/14 07:55:43;;;;;;;31.33;24.40;;;;;;;13.36;93.27;101980.47;5010136;28;20716;-73
2022/04/14 07:58:09;;;;;;;32.63;26.30;;;;;;;13.29;92.87;101982.78;5010580;28;20549;-72
2022/04/14 08:00:36;;;;;;;33.23;25.10;;;;;;;13.43;92.76;101986.59;5010054;28;20222;-73
2022/04/14 08:03:03;;;;;;;36.00;27.07;;;;;;;13.51;93.00;101987.69;5015775;28;20186;-72
2022/04/14 08:05:33;;;;;;;32.10;24.80;;;;;;;13.62;92.58;101983.69;5010545;28;20573;-72
2022/04/14 08:07:59;;;;;;;33.50;25.53;;;;;;;13.75;91.87;101990.88;5008608;28;20183;-73
2022/04/14 08:10:24;;;;;;;33.20;24.37;;;;;;;14.00;91.14;101982.94;5010674;28;20175;-72
2022/04/14 08:12:50;;;;;;;29.17;23.40;;;;;;;14.18;89.82;101986.78;5001796;28;20552;-74
2022/04/14 08:15:15;;;;;;;30.50;23.37;;;;;;;14.25;88.94;101982.69;4994358;28;20212;-73
2022/04/14 08:17:42;;;;;;;26.77;22.53;;;;;;;14.29;89.13;101981.91;4990510;28;20649;-74
2022/04/14 08:20:10;;;;;;;30.77;23.87;;;;;;;14.21;89.17;101978.28;4992461;28;20294;-73
2022/04/14 08:22:45;;;;;;;29.10;23.13;;;;;;;14.35;88.36;101984.63;5010071;28;20191;-73
2022/04/14 08:25:12;;;;;;;24.93;22.23;;;;;;;14.35;87.80;101985.50;5009266;28;20242;-73
2022/04/14 08:27:38;;;;;;;26.40;22.97;;;;;;;14.42;86.52;101982.25;5010349;28;20194;-72
2022/04/14 08:30:03;;;;;;;28.80;22.63;;;;;;;14.41;86.59;101975.31;5010115;28;20263;-73
2022/04/14 08:32:29;;;;;;;27.13;23.13;;;;;;;14.45;86.03;101978.88;5010543;28;20579;-73
2022/04/14 08:34:55;;;;;;;26.13;22.43;;;;;;;14.53;85.72;101975.59;5009891;28;20269;-74
2022/04/14 08:37:20;;;;;;;24.40;21.80;;;;;;;14.65;85.01;101983.56;5019425;28;20236;-73
2022/04/14 08:39:45;;;;;;;26.60;23.43;;;;;;;14.52;84.80;101978.13;5029584;28;20298;-72
2022/04/14 08:42:15;;;;;;;27.80;22.73;;;;;;;14.50;85.39;101979.84;5029475;28;20206;-74
2022/04/14 08:44:47;;;;;;;26.87;22.80;;;;;;;14.56;85.01;101983.41;5010503;28;20215;-74
2022/04/14 08:47:15;;;;;;;27.63;23.10;;;;;;;14.52;85.55;101989.34;4991999;28;20287;-74
2022/04/14 08:49:40;;;;;;;32.40;24.40;;;;;;;14.52;86.00;101994.50;5009676;28;20211;-74
2022/04/14 08:52:06;;;;;;;26.60;22.50;;;;;;;14.43;85.78;101996.88;5008928;28;20229;-74
2022/04/14 08:54:33;;;;;;;29.60;24.20;;;;;;;14.33;86.00;101991.47;5021051;28;20260;-73
2022/04/14 08:56:59;;;;;;;26.80;23.47;;;;;;;14.31;85.93;101996.56;5029950;28;20228;-72
2022/04/14 08:59:26;;;;;;;31.33;23.23;;;;;;;14.25;85.78;101993.88;5008178;28;20199;-72
2022/04/14 09:01:52;;;;;;;27.60;22.00;;;;;;;14.45;85.22;101994.31;4999807;28;20188;-73
2022/04/14 09:04:17;;;;;;;28.43;24.27;;;;;;;14.80;83.50;101980.47;4989897;28;20203;-73
2022/04/14 09:06:43;;;;;;;26.67;21.80;;;;;;;14.93;82.91;101980.75;4972559;28;20203;-73
2022/04/14 09:09:08;;;;;;;28.67;23.10;;;;;;;15.14;83.07;101975.16;4989936;28;20183;-75
2022/04/14 09:11:34;;;;;;;26.37;20.97;;;;;;;15.15;81.43;101977.72;5000201;28;20187;-73
2022/04/14 09:14:00;;;;;;;26.53;23.00;;;;;;;15.12;82.09;101990.59;4987063;28;20214;-74
2022/04/14 09:16:26;;;;;;;26.33;22.43;;;;;;;15.16;81.68;101989.81;5009615;28;20202;-74
2022/04/14 09:18:53;;;;;;;27.00;23.47;;;;;;;15.02;81.55;101993.84;5009342;28;20572;-74
2022/04/14 09:21:18;;;;;;;25.93;23.13;;;;;;;14.99;81.61;101986.03;5009293;28;20226;-74
2022/04/14 09:23:51;;;;;;;28.00;23.83;;;;;;;15.29;81.44;101976.28;5009594;28;20222;-73
2022/04/14 09:26:23;;;;;;;23.67;21.07;;;;;;;15.84;80.21;101976.41;4992064;28;20187;-73
2022/04/14 09:29:07;;;;;;;24.37;21.77;;;;;;;15.89;79.85;101971.34;5022607;28;20287;-73
2022/04/14 09:31:50;;;;;;;25.03;21.80;;;;;;;15.35;80.38;101981.59;5029200;28;20194;-72
2022/04/14 09:34:17;;;;;;;24.47;21.87;;;;;;;15.82;79.51;101967.78;5010764;28;20217;-73
2022/04/14 09:37:06;;;;;;;26.00;21.30;;;;;;;15.87;78.22;101976.47;5028981;28;20683;-72
2022/04/14 09:39:49;;;;;;;22.47;19.80;;;;;;;15.78;77.42;101983.19;5008826;28;20202;-73
2022/04/14 09:42:14;;;;;;;22.83;20.43;;;;;;;15.75;78.19;101986.59;4991561;28;20211;-73
2022/04/14 09:44:40;;;;;;;25.60;19.33;;;;;;;15.63;78.17;101980.38;5012852;28;20257;-73
2022/04/14 09:47:05;;;;;;;21.43;19.27;;;;;;;15.46;77.91;101984.34;5029038;28;20197;-73
2022/04/14 09:49:30;;;;;;;24.17;18.87;;;;;;;15.66;77.89;101978.69;5010744;28;20225;-74
2022/04/14 09:51:56;;;;;;;25.77;20.40;;;;;;;15.66;79.14;101976.13;5028940;28;20197;-73
2022/04/14 09:54:28;;;;;;;23.20;20.20;;;;;;;15.74;78.74;101969.38;5011168;28;20206;-75
2022/04/14 09:56:56;;;;;;;21.53;19.23;;;;;;;16.08;77.87;101968.19;5010513;28;20201;-73
2022/04/14 09:59:23;;;;;;;21.87;19.43;;;;;;;16.42;75.97;101965.28;5026048;28;20222;-73
2022/04/14 10:02:06;;;;;;;21.10;18.60;;;;;;;16.36;75.96;101962.56;5014479;28;20206;-74
2022/04/14 10:04:37;;;;;;;18.27;16.27;;;;;;;16.46;74.73;101961.88;5028857;28;20297;-74
2022/04/14 10:07:07;;;;;;;19.93;15.73;;;;;;;16.55;74.43;101965.47;5028252;28;20695;-74
2022/04/14 10:09:35;;;;;;;17.20;15.43;;;;;;;16.27;75.51;101967.63;5028705;28;20182;-74
2022/04/14 10:12:01;;;;;;;20.97;15.67;;;;;;;15.95;76.14;101967.16;5007161;28;20219;-74
2022/04/14 10:14:26;;;;;;;18.53;15.07;;;;;;;15.77;75.77;101973.72;4995608;28;20306;-73
2022/04/14 10:16:52;;;;;;;17.97;15.00;;;;;;;15.78;76.81;101971.16;5000372;28;20295;-73
2022/04/14 10:19:19;;;;;;;17.03;14.40;;;;;;;16.52;73.77;101962.84;5007700;28;20643;-74
2022/04/14 10:21:45;;;;;;;17.70;14.53;;;;;;;16.86;72.42;101971.91;5012457;28;20669;-73
2022/04/14 10:24:14;;;;;;;19.17;15.33;;;;;;;16.80;72.37;101961.47;5007815;28;20202;-72
2022/04/14 10:26:40;;;;;;;16.87;14.90;;;;;;;17.13;71.76;101967.03;5007988;28;20210;-73
2022/04/14 10:29:06;;;;;;;16.93;14.23;;;;;;;17.12;71.21;101962.69;5005894;28;20576;-74
2022/04/14 10:31:40;;;;;;;16.13;13.93;;;;;;;17.76;69.62;101962.47;5009560;28;20199;-74
2022/04/14 10:34:07;;;;;;;15.60;12.00;;;;;;;18.03;66.89;101960.97;5009803;28;20215;-74
2022/04/14 10:36:39;;;;;;;14.60;11.93;;;;;;;18.59;63.88;101950.94;5009007;28;20241;-74
2022/04/14 10:39:05;;;;;;;14.70;12.23;;;;;;;18.45;63.90;101960.38;4978323;28;20735;-74
2022/04/14 10:41:35;;;;;;;13.73;12.10;;;;;;;18.44;62.91;101954.34;5011884;28;20226;-74
2022/04/14 10:44:02;;;;;;;13.43;11.90;;;;;;;18.07;63.53;101952.38;5012342;28;20696;-74
2022/04/14 10:46:32;;;;;;;13.07;11.73;;;;;;;18.05;63.81;101959.25;5011987;28;20183;-75
2022/04/14 10:49:11;;;;;;;15.33;13.67;;;;;;;17.74;65.89;101956.44;5011938;28;20226;-74
2022/04/14 10:51:37;;;;;;;19.60;17.43;;;;;;;17.40;67.71;101955.25;5012191;28;20199;-73
2022/04/14 10:54:06;;;;;;;19.77;17.67;;;;;;;17.20;69.79;101954.16;5027082;28;20318;-74
2022/04/14 10:56:38;;;;;;;20.37;16.77;;;;;;;16.83;69.80;101952.03;5017425;28;20195;-72
2022/04/14 10:59:04;;;;;;;17.80;15.53;;;;;;;16.66;70.80;101960.41;5011555;28;20219;-74
2022/04/14 11:01:51;;;;;;;18.87;16.47;;;;;;;16.59;72.18;101963.78;5012286;28;20683;-75
2022/04/14 11:04:53;;;;;;;19.10;16.83;;;;;;;16.90;71.01;101963.31;4993985;28;20215;-74
2022/04/14 11:07:22;;;;;;;16.70;14.87;;;;;;;18.17;65.80;101963.66;5012079;28;20191;-74